sensor_id;sensor_type;location;lat;lon;timestamp;P1;durP1;ratioP1;P2;durP2;ratioP2
37943;SDS011;23767;42.024;23.086;2024-02-21T00:02:12;20.23;;;16.48;;
37943;SDS011;23767;42.024;23.086;2024-02-21T00:04:37;17.83;;;13.80;;
37943;SDS011;23767;42.024;23.086;2024-02-21T00:07:03;17.00;;;12.75;;
37943;SDS011;23767;42.024;23.086;2024-02-21T00:09:29;17.10;;;12.82;;
37943;SDS011;23767;42.024;23.086;2024-02-21T00:11:55;15.07;;;11.38;;
37943;SDS011;23767;42.024;23.086;2024-02-21T00:14:21;12.95;;;10.52;;
37943;SDS011;23767;42.024;23.086;2024-02-21T00:16:46;13.90;;;9.88;;
37943;SDS011;23767;42.024;23.086;2024-02-21T00:19:12;12.60;;;9.45;;
37943;SDS011;23767;42.024;23.086;2024-02-21T00:21:39;13.00;;;8.73;;
37943;SDS011;23767;42.024;23.086;2024-02-21T00:24:05;12.80;;;9.88;;
37943;SDS011;23767;42.024;23.086;2024-02-21T00:26:31;12.30;;;9.30;;
37943;SDS011;23767;42.024;23.086;2024-02-21T00:28:56;12.38;;;9.65;;
37943;SDS011;23767;42.024;23.086;2024-02-21T00:31:22;13.07;;;9.70;;
37943;SDS011;23767;42.024;23.086;2024-02-21T00:33:48;14.50;;;10.23;;
37943;SDS011;23767;42.024;23.086;2024-02-21T00:36:13;15.27;;;10.73;;
37943;SDS011;23767;42.024;23.086;2024-02-21T00:38:40;13.63;;;10.48;;
37943;SDS011;23767;42.024;23.086;2024-02-21T00:41:06;13.13;;;9.93;;
37943;SDS011;23767;42.024;23.086;2024-02-21T00:43:31;12.88;;;10.27;;
37943;SDS011;23767;42.024;23.086;2024-02-21T00:45:57;15.43;;;10.18;;
37943;SDS011;23767;42.024;23.086;2024-02-21T00:48:23;13.40;;;10.70;;
37943;SDS011;23767;42.024;23.086;2024-02-21T00:50:48;14.55;;;11.57;;
37943;SDS011;23767;42.024;23.086;2024-02-21T00:53:14;15.15;;;12.02;;
37943;SDS011;23767;42.024;23.086;2024-02-21T00:55:39;15.10;;;12.57;;
37943;SDS011;23767;42.024;23.086;2024-02-21T00:58:05;16.58;;;12.40;;
37943;SDS011;23767;42.024;23.086;2024-02-21T01:00:31;16.35;;;12.65;;
37943;SDS011;23767;42.024;23.086;2024-02-21T01:02:57;17.77;;;12.43;;
37943;SDS011;23767;42.024;23.086;2024-02-21T01:05:22;15.30;;;11.45;;
37943;SDS011;23767;42.024;23.086;2024-02-21T01:07:48;14.90;;;11.52;;
37943;SDS011;23767;42.024;23.086;2024-02-21T01:10:13;15.35;;;12.55;;
37943;SDS011;23767;42.024;23.086;2024-02-21T01:12:39;15.93;;;12.57;;
37943;SDS011;23767;42.024;23.086;2024-02-21T01:15:05;15.63;;;11.88;;
37943;SDS011;23767;42.024;23.086;2024-02-21T01:17:31;15.70;;;12.93;;
37943;SDS011;23767;42.024;23.086;2024-02-21T01:19:57;16.73;;;12.73;;
37943;SDS011;23767;42.024;23.086;2024-02-21T01:22:24;17.00;;;12.90;;
37943;SDS011;23767;42.024;23.086;2024-02-21T01:24:49;16.90;;;13.27;;
37943;SDS011;23767;42.024;23.086;2024-02-21T01:27:15;18.33;;;14.50;;
37943;SDS011;23767;42.024;23.086;2024-02-21T01:29:41;18.70;;;14.57;;
37943;SDS011;23767;42.024;23.086;2024-02-21T01:32:07;19.38;;;14.65;;
37943;SDS011;23767;42.024;23.086;2024-02-21T01:34:32;19.30;;;14.38;;
37943;SDS011;23767;42.024;23.086;2024-02-21T01:36:58;17.85;;;14.80;;
37943;SDS011;23767;42.024;23.086;2024-02-21T01:39:24;21.17;;;15.60;;
37943;SDS011;23767;42.024;23.086;2024-02-21T01:41:50;20.00;;;15.30;;
37943;SDS011;23767;42.024;23.086;2024-02-21T01:44:15;18.38;;;15.23;;
37943;SDS011;23767;42.024;23.086;2024-02-21T01:46:41;18.85;;;14.85;;
37943;SDS011;23767;42.024;23.086;2024-02-21T01:49:07;16.65;;;13.88;;
37943;SDS011;23767;42.024;23.086;2024-02-21T01:51:32;18.65;;;14.60;;
37943;SDS011;23767;42.024;23.086;2024-02-21T01:53:58;18.67;;;13.80;;
37943;SDS011;23767;42.024;23.086;2024-02-21T01:56:24;17.67;;;13.82;;
37943;SDS011;23767;42.024;23.086;2024-02-21T01:58:50;19.05;;;14.88;;
37943;SDS011;23767;42.024;23.086;2024-02-21T02:01:16;20.63;;;15.15;;
37943;SDS011;23767;42.024;23.086;2024-02-21T02:03:42;20.75;;;15.35;;
37943;SDS011;23767;42.024;23.086;2024-02-21T02:06:10;18.42;;;14.95;;
37943;SDS011;23767;42.024;23.086;2024-02-21T02:08:35;18.90;;;14.90;;
37943;SDS011;23767;42.024;23.086;2024-02-21T02:11:01;20.10;;;16.02;;
37943;SDS011;23767;42.024;23.086;2024-02-21T02:13:27;21.27;;;16.83;;
37943;SDS011;23767;42.024;23.086;2024-02-21T02:15:53;20.85;;;14.70;;
37943;SDS011;23767;42.024;23.086;2024-02-21T02:18:19;18.30;;;14.13;;
37943;SDS011;23767;42.024;23.086;2024-02-21T02:20:45;18.13;;;14.57;;
37943;SDS011;23767;42.024;23.086;2024-02-21T02:25:54;19.55;;;16.20;;
37943;SDS011;23767;42.024;23.086;2024-02-21T02:28:20;19.83;;;15.80;;
37943;SDS011;23767;42.024;23.086;2024-02-21T02:30:46;20.10;;;15.20;;
37943;SDS011;23767;42.024;23.086;2024-02-21T02:33:12;18.20;;;14.00;;
37943;SDS011;23767;42.024;23.086;2024-02-21T02:35:38;17.63;;;12.20;;
37943;SDS011;23767;42.024;23.086;2024-02-21T02:38:04;14.48;;;11.27;;
37943;SDS011;23767;42.024;23.086;2024-02-21T02:40:30;13.93;;;11.30;;
37943;SDS011;23767;42.024;23.086;2024-02-21T02:42:56;15.30;;;12.00;;
37943;SDS011;23767;42.024;23.086;2024-02-21T02:45:22;15.38;;;11.80;;
37943;SDS011;23767;42.024;23.086;2024-02-21T02:47:49;18.73;;;12.98;;
37943;SDS011;23767;42.024;23.086;2024-02-21T02:50:15;13.75;;;11.13;;
37943;SDS011;23767;42.024;23.086;2024-02-21T02:52:40;13.93;;;10.90;;
37943;SDS011;23767;42.024;23.086;2024-02-21T02:55:06;13.90;;;10.73;;
37943;SDS011;23767;42.024;23.086;2024-02-21T02:57:32;13.10;;;10.40;;
37943;SDS011;23767;42.024;23.086;2024-02-21T02:59:58;12.18;;;9.43;;
37943;SDS011;23767;42.024;23.086;2024-02-21T03:02:23;13.63;;;10.23;;
37943;SDS011;23767;42.024;23.086;2024-02-21T03:04:49;11.90;;;9.65;;
37943;SDS011;23767;42.024;23.086;2024-02-21T03:07:15;13.00;;;10.23;;
37943;SDS011;23767;42.024;23.086;2024-02-21T03:09:41;14.88;;;9.82;;
37943;SDS011;23767;42.024;23.086;2024-02-21T03:12:10;12.25;;;10.00;;
37943;SDS011;23767;42.024;23.086;2024-02-21T03:14:36;13.23;;;10.60;;
37943;SDS011;23767;42.024;23.086;2024-02-21T03:17:02;15.95;;;10.13;;
37943;SDS011;23767;42.024;23.086;2024-02-21T03:19:28;14.82;;;10.73;;
37943;SDS011;23767;42.024;23.086;2024-02-21T03:21:54;15.13;;;11.98;;
37943;SDS011;23767;42.024;23.086;2024-02-21T03:24:20;13.90;;;11.48;;
37943;SDS011;23767;42.024;23.086;2024-02-21T03:26:46;15.63;;;11.05;;
37943;SDS011;23767;42.024;23.086;2024-02-21T03:29:14;15.30;;;11.90;;
37943;SDS011;23767;42.024;23.086;2024-02-21T03:31:40;14.35;;;11.65;;
37943;SDS011;23767;42.024;23.086;2024-02-21T03:34:05;19.02;;;13.05;;
37943;SDS011;23767;42.024;23.086;2024-02-21T03:36:31;17.17;;;12.60;;
37943;SDS011;23767;42.024;23.086;2024-02-21T03:38:57;16.92;;;13.50;;
37943;SDS011;23767;42.024;23.086;2024-02-21T03:41:22;19.13;;;15.27;;
37943;SDS011;23767;42.024;23.086;2024-02-21T03:43:48;20.38;;;15.93;;
37943;SDS011;23767;42.024;23.086;2024-02-21T03:46:14;19.05;;;14.52;;
37943;SDS011;23767;42.024;23.086;2024-02-21T03:48:40;17.25;;;14.85;;
37943;SDS011;23767;42.024;23.086;2024-02-21T03:51:06;20.50;;;16.02;;
37943;SDS011;23767;42.024;23.086;2024-02-21T03:53:32;20.35;;;14.55;;
37943;SDS011;23767;42.024;23.086;2024-02-21T03:56:00;17.17;;;12.82;;
37943;SDS011;23767;42.024;23.086;2024-02-21T03:58:28;15.18;;;11.93;;
37943;SDS011;23767;42.024;23.086;2024-02-21T04:00:53;17.13;;;14.55;;
37943;SDS011;23767;42.024;23.086;2024-02-21T04:03:19;14.85;;;12.10;;
37943;SDS011;23767;42.024;23.086;2024-02-21T04:05:45;18.23;;;13.82;;
37943;SDS011;23767;42.024;23.086;2024-02-21T04:08:11;18.65;;;13.82;;
37943;SDS011;23767;42.024;23.086;2024-02-21T04:10:36;18.95;;;14.18;;
37943;SDS011;23767;42.024;23.086;2024-02-21T04:13:02;20.95;;;15.88;;
37943;SDS011;23767;42.024;23.086;2024-02-21T04:15:29;19.50;;;15.13;;
37943;SDS011;23767;42.024;23.086;2024-02-21T04:17:54;19.90;;;15.60;;
37943;SDS011;23767;42.024;23.086;2024-02-21T04:20:20;20.33;;;13.63;;
37943;SDS011;23767;42.024;23.086;2024-02-21T04:22:46;16.08;;;13.25;;
37943;SDS011;23767;42.024;23.086;2024-02-21T04:25:11;19.20;;;13.98;;
37943;SDS011;23767;42.024;23.086;2024-02-21T04:27:41;19.88;;;13.75;;
37943;SDS011;23767;42.024;23.086;2024-02-21T04:30:07;16.48;;;13.32;;
37943;SDS011;23767;42.024;23.086;2024-02-21T04:32:34;14.77;;;12.05;;
37943;SDS011;23767;42.024;23.086;2024-02-21T04:35:00;16.88;;;11.77;;
37943;SDS011;23767;42.024;23.086;2024-02-21T04:37:26;14.60;;;11.73;;
37943;SDS011;23767;42.024;23.086;2024-02-21T04:39:52;13.43;;;10.85;;
37943;SDS011;23767;42.024;23.086;2024-02-21T04:42:17;15.52;;;13.15;;
37943;SDS011;23767;42.024;23.086;2024-02-21T04:44:43;15.07;;;11.45;;
37943;SDS011;23767;42.024;23.086;2024-02-21T04:47:09;14.77;;;11.18;;
37943;SDS011;23767;42.024;23.086;2024-02-21T04:49:35;15.65;;;11.00;;
37943;SDS011;23767;42.024;23.086;2024-02-21T04:52:01;15.50;;;11.57;;
37943;SDS011;23767;42.024;23.086;2024-02-21T04:54:27;14.40;;;11.27;;
37943;SDS011;23767;42.024;23.086;2024-02-21T04:56:52;17.77;;;12.98;;
37943;SDS011;23767;42.024;23.086;2024-02-21T04:59:18;17.60;;;13.85;;
37943;SDS011;23767;42.024;23.086;2024-02-21T05:01:44;22.48;;;15.63;;
37943;SDS011;23767;42.024;23.086;2024-02-21T05:04:09;24.05;;;14.65;;
37943;SDS011;23767;42.024;23.086;2024-02-21T05:06:39;22.98;;;15.80;;
37943;SDS011;23767;42.024;23.086;2024-02-21T05:09:08;21.98;;;14.85;;
37943;SDS011;23767;42.024;23.086;2024-02-21T05:11:34;23.73;;;14.73;;
37943;SDS011;23767;42.024;23.086;2024-02-21T05:14:01;21.73;;;15.25;;
37943;SDS011;23767;42.024;23.086;2024-02-21T05:16:27;21.65;;;14.30;;
37943;SDS011;23767;42.024;23.086;2024-02-21T05:18:53;20.35;;;14.15;;
37943;SDS011;23767;42.024;23.086;2024-02-21T05:21:19;22.08;;;14.23;;
37943;SDS011;23767;42.024;23.086;2024-02-21T05:23:44;22.60;;;14.75;;
37943;SDS011;23767;42.024;23.086;2024-02-21T05:26:10;19.40;;;14.23;;
37943;SDS011;23767;42.024;23.086;2024-02-21T05:28:36;17.67;;;12.57;;
37943;SDS011;23767;42.024;23.086;2024-02-21T05:31:01;18.02;;;12.40;;
37943;SDS011;23767;42.024;23.086;2024-02-21T05:33:27;16.30;;;11.07;;
37943;SDS011;23767;42.024;23.086;2024-02-21T05:35:53;16.42;;;11.38;;
37943;SDS011;23767;42.024;23.086;2024-02-21T05:38:18;18.27;;;12.50;;
37943;SDS011;23767;42.024;23.086;2024-02-21T05:40:44;17.33;;;12.73;;
37943;SDS011;23767;42.024;23.086;2024-02-21T05:43:10;18.92;;;13.60;;
37943;SDS011;23767;42.024;23.086;2024-02-21T05:45:36;19.10;;;13.30;;
37943;SDS011;23767;42.024;23.086;2024-02-21T05:48:02;17.08;;;12.35;;
37943;SDS011;23767;42.024;23.086;2024-02-21T05:50:31;18.10;;;11.68;;
37943;SDS011;23767;42.024;23.086;2024-02-21T05:52:57;19.90;;;12.20;;
37943;SDS011;23767;42.024;23.086;2024-02-21T05:55:23;19.55;;;11.45;;
37943;SDS011;23767;42.024;23.086;2024-02-21T05:57:49;14.75;;;10.77;;
37943;SDS011;23767;42.024;23.086;2024-02-21T06:00:15;17.60;;;11.30;;
37943;SDS011;23767;42.024;23.086;2024-02-21T06:02:41;17.10;;;10.57;;
37943;SDS011;23767;42.024;23.086;2024-02-21T06:05:07;16.15;;;11.32;;
37943;SDS011;23767;42.024;23.086;2024-02-21T06:07:34;18.33;;;11.80;;
37943;SDS011;23767;42.024;23.086;2024-02-21T06:10:01;19.85;;;12.48;;
37943;SDS011;23767;42.024;23.086;2024-02-21T06:12:27;18.00;;;11.38;;
37943;SDS011;23767;42.024;23.086;2024-02-21T06:14:53;20.23;;;13.60;;
37943;SDS011;23767;42.024;23.086;2024-02-21T06:17:18;20.65;;;13.07;;
37943;SDS011;23767;42.024;23.086;2024-02-21T06:19:44;21.00;;;13.68;;
37943;SDS011;23767;42.024;23.086;2024-02-21T06:22:10;22.13;;;13.73;;
37943;SDS011;23767;42.024;23.086;2024-02-21T06:24:36;18.60;;;13.82;;
37943;SDS011;23767;42.024;23.086;2024-02-21T06:27:05;19.42;;;12.32;;
37943;SDS011;23767;42.024;23.086;2024-02-21T06:29:33;19.15;;;11.85;;
37943;SDS011;23767;42.024;23.086;2024-02-21T06:32:00;21.75;;;14.00;;
37943;SDS011;23767;42.024;23.086;2024-02-21T06:34:27;21.58;;;14.18;;
37943;SDS011;23767;42.024;23.086;2024-02-21T06:36:53;23.45;;;14.05;;
37943;SDS011;23767;42.024;23.086;2024-02-21T06:39:18;20.50;;;14.55;;
37943;SDS011;23767;42.024;23.086;2024-02-21T06:41:44;25.70;;;15.63;;
37943;SDS011;23767;42.024;23.086;2024-02-21T06:44:10;22.73;;;15.02;;
37943;SDS011;23767;42.024;23.086;2024-02-21T06:46:35;27.50;;;16.27;;
37943;SDS011;23767;42.024;23.086;2024-02-21T06:49:02;23.35;;;14.45;;
37943;SDS011;23767;42.024;23.086;2024-02-21T06:51:30;25.67;;;14.73;;
37943;SDS011;23767;42.024;23.086;2024-02-21T06:53:56;26.40;;;15.18;;
37943;SDS011;23767;42.024;23.086;2024-02-21T06:56:23;20.90;;;13.15;;
37943;SDS011;23767;42.024;23.086;2024-02-21T06:58:56;14.88;;;10.80;;
37943;SDS011;23767;42.024;23.086;2024-02-21T07:01:22;13.75;;;9.93;;
37943;SDS011;23767;42.024;23.086;2024-02-21T07:03:48;15.48;;;10.23;;
37943;SDS011;23767;42.024;23.086;2024-02-21T07:06:14;17.95;;;9.85;;
37943;SDS011;23767;42.024;23.086;2024-02-21T07:08:40;15.30;;;10.00;;
37943;SDS011;23767;42.024;23.086;2024-02-21T07:11:06;14.10;;;9.70;;
37943;SDS011;23767;42.024;23.086;2024-02-21T07:13:32;16.75;;;10.77;;
37943;SDS011;23767;42.024;23.086;2024-02-21T07:15:58;23.55;;;16.83;;
37943;SDS011;23767;42.024;23.086;2024-02-21T07:18:23;34.30;;;24.02;;
37943;SDS011;23767;42.024;23.086;2024-02-21T07:20:50;35.92;;;25.30;;
37943;SDS011;23767;42.024;23.086;2024-02-21T07:23:16;31.77;;;24.25;;
37943;SDS011;23767;42.024;23.086;2024-02-21T07:25:43;32.42;;;25.08;;
37943;SDS011;23767;42.024;23.086;2024-02-21T07:28:08;33.95;;;24.60;;
37943;SDS011;23767;42.024;23.086;2024-02-21T07:30:34;30.40;;;25.00;;
37943;SDS011;23767;42.024;23.086;2024-02-21T07:33:00;30.80;;;25.00;;
37943;SDS011;23767;42.024;23.086;2024-02-21T07:35:25;34.35;;;24.50;;
37943;SDS011;23767;42.024;23.086;2024-02-21T07:37:51;31.45;;;23.15;;
37943;SDS011;23767;42.024;23.086;2024-02-21T07:40:17;33.65;;;23.38;;
37943;SDS011;23767;42.024;23.086;2024-02-21T07:42:43;30.92;;;22.38;;
37943;SDS011;23767;42.024;23.086;2024-02-21T07:45:09;38.42;;;23.08;;
37943;SDS011;23767;42.024;23.086;2024-02-21T07:47:36;34.75;;;25.67;;
37943;SDS011;23767;42.024;23.086;2024-02-21T07:50:02;38.03;;;27.48;;
37943;SDS011;23767;42.024;23.086;2024-02-21T07:52:28;33.38;;;24.48;;
37943;SDS011;23767;42.024;23.086;2024-02-21T07:54:54;26.38;;;22.27;;
37943;SDS011;23767;42.024;23.086;2024-02-21T07:57:20;27.73;;;19.73;;
37943;SDS011;23767;42.024;23.086;2024-02-21T07:59:46;24.17;;;17.73;;
37943;SDS011;23767;42.024;23.086;2024-02-21T08:02:15;27.40;;;19.25;;
37943;SDS011;23767;42.024;23.086;2024-02-21T08:04:41;26.35;;;18.63;;
37943;SDS011;23767;42.024;23.086;2024-02-21T08:07:07;27.23;;;17.80;;
37943;SDS011;23767;42.024;23.086;2024-02-21T08:09:32;29.90;;;21.10;;
37943;SDS011;23767;42.024;23.086;2024-02-21T08:11:58;37.33;;;23.50;;
37943;SDS011;23767;42.024;23.086;2024-02-21T08:14:24;34.53;;;24.10;;
37943;SDS011;23767;42.024;23.086;2024-02-21T08:16:50;27.02;;;21.08;;
37943;SDS011;23767;42.024;23.086;2024-02-21T08:19:18;26.13;;;19.00;;
37943;SDS011;23767;42.024;23.086;2024-02-21T08:21:44;22.00;;;17.67;;
37943;SDS011;23767;42.024;23.086;2024-02-21T08:24:12;23.38;;;17.75;;
37943;SDS011;23767;42.024;23.086;2024-02-21T08:26:41;22.23;;;17.08;;
37943;SDS011;23767;42.024;23.086;2024-02-21T08:29:07;22.52;;;16.58;;
37943;SDS011;23767;42.024;23.086;2024-02-21T08:31:33;22.98;;;16.92;;
37943;SDS011;23767;42.024;23.086;2024-02-21T08:33:59;18.58;;;14.68;;
37943;SDS011;23767;42.024;23.086;2024-02-21T08:36:35;16.27;;;11.93;;
37943;SDS011;23767;42.024;23.086;2024-02-21T08:39:01;16.85;;;13.65;;
37943;SDS011;23767;42.024;23.086;2024-02-21T08:41:30;17.25;;;13.32;;
37943;SDS011;23767;42.024;23.086;2024-02-21T08:43:59;18.20;;;13.63;;
37943;SDS011;23767;42.024;23.086;2024-02-21T08:46:25;19.80;;;13.80;;
37943;SDS011;23767;42.024;23.086;2024-02-21T08:48:52;17.27;;;13.30;;
37943;SDS011;23767;42.024;23.086;2024-02-21T08:51:18;22.95;;;16.65;;
37943;SDS011;23767;42.024;23.086;2024-02-21T08:53:45;25.27;;;17.10;;
37943;SDS011;23767;42.024;23.086;2024-02-21T08:56:11;24.73;;;16.58;;
37943;SDS011;23767;42.024;23.086;2024-02-21T08:58:36;20.88;;;14.95;;
37943;SDS011;23767;42.024;23.086;2024-02-21T09:01:03;18.88;;;14.02;;
37943;SDS011;23767;42.024;23.086;2024-02-21T09:03:35;17.52;;;12.57;;
37943;SDS011;23767;42.024;23.086;2024-02-21T09:06:02;18.15;;;14.15;;
37943;SDS011;23767;42.024;23.086;2024-02-21T09:08:27;21.55;;;14.80;;
37943;SDS011;23767;42.024;23.086;2024-02-21T09:10:53;17.90;;;12.88;;
37943;SDS011;23767;42.024;23.086;2024-02-21T09:13:19;15.85;;;12.90;;
37943;SDS011;23767;42.024;23.086;2024-02-21T09:15:44;17.95;;;10.43;;
37943;SDS011;23767;42.024;23.086;2024-02-21T09:18:10;16.27;;;10.98;;
37943;SDS011;23767;42.024;23.086;2024-02-21T09:20:36;15.40;;;10.88;;
37943;SDS011;23767;42.024;23.086;2024-02-21T09:23:01;16.67;;;11.30;;
37943;SDS011;23767;42.024;23.086;2024-02-21T09:25:27;16.35;;;11.00;;
37943;SDS011;23767;42.024;23.086;2024-02-21T09:27:53;14.77;;;10.32;;
37943;SDS011;23767;42.024;23.086;2024-02-21T09:30:20;13.93;;;9.98;;
37943;SDS011;23767;42.024;23.086;2024-02-21T09:32:46;13.73;;;10.07;;
37943;SDS011;23767;42.024;23.086;2024-02-21T09:35:12;16.13;;;9.80;;
37943;SDS011;23767;42.024;23.086;2024-02-21T09:37:38;13.88;;;9.68;;
37943;SDS011;23767;42.024;23.086;2024-02-21T09:40:04;14.18;;;8.43;;
37943;SDS011;23767;42.024;23.086;2024-02-21T09:42:37;17.42;;;8.13;;
37943;SDS011;23767;42.024;23.086;2024-02-21T09:45:25;10.63;;;6.75;;
37943;SDS011;23767;42.024;23.086;2024-02-21T09:50:34;11.35;;;5.22;;
37943;SDS011;23767;42.024;23.086;2024-02-21T09:53:01;8.43;;;5.30;;
37943;SDS011;23767;42.024;23.086;2024-02-21T09:55:29;9.32;;;5.18;;
37943;SDS011;23767;42.024;23.086;2024-02-21T09:57:59;9.52;;;4.88;;
37943;SDS011;23767;42.024;23.086;2024-02-21T10:00:26;12.52;;;5.85;;
37943;SDS011;23767;42.024;23.086;2024-02-21T10:02:53;12.43;;;5.40;;
37943;SDS011;23767;42.024;23.086;2024-02-21T10:05:19;12.35;;;5.10;;
37943;SDS011;23767;42.024;23.086;2024-02-21T10:07:45;12.95;;;4.13;;
37943;SDS011;23767;42.024;23.086;2024-02-21T10:10:11;8.68;;;4.00;;
37943;SDS011;23767;42.024;23.086;2024-02-21T10:12:36;8.35;;;4.47;;
37943;SDS011;23767;42.024;23.086;2024-02-21T10:15:12;9.05;;;3.90;;
37943;SDS011;23767;42.024;23.086;2024-02-21T10:17:38;9.80;;;4.13;;
37943;SDS011;23767;42.024;23.086;2024-02-21T10:20:09;8.35;;;4.15;;
37943;SDS011;23767;42.024;23.086;2024-02-21T10:22:37;10.25;;;4.40;;
37943;SDS011;23767;42.024;23.086;2024-02-21T10:25:10;9.98;;;4.60;;
37943;SDS011;23767;42.024;23.086;2024-02-21T10:27:37;8.90;;;4.40;;
37943;SDS011;23767;42.024;23.086;2024-02-21T10:30:05;7.72;;;4.30;;
37943;SDS011;23767;42.024;23.086;2024-02-21T10:32:32;10.75;;;4.50;;
37943;SDS011;23767;42.024;23.086;2024-02-21T10:35:04;7.72;;;4.05;;
37943;SDS011;23767;42.024;23.086;2024-02-21T10:37:30;13.95;;;3.63;;
37943;SDS011;23767;42.024;23.086;2024-02-21T10:39:57;13.02;;;3.85;;
37943;SDS011;23767;42.024;23.086;2024-02-21T10:42:22;9.48;;;3.42;;
37943;SDS011;23767;42.024;23.086;2024-02-21T10:44:53;6.63;;;3.38;;
37943;SDS011;23767;42.024;23.086;2024-02-21T10:47:22;6.72;;;3.10;;
37943;SDS011;23767;42.024;23.086;2024-02-21T10:49:54;17.23;;;4.00;;
37943;SDS011;23767;42.024;23.086;2024-02-21T10:55:04;13.68;;;7.28;;
37943;SDS011;23767;42.024;23.086;2024-02-21T10:57:56;46.80;;;27.35;;
37943;SDS011;23767;42.024;23.086;2024-02-21T11:00:23;13.93;;;8.23;;
37943;SDS011;23767;42.024;23.086;2024-02-21T11:02:55;10.23;;;6.05;;
37943;SDS011;23767;42.024;23.086;2024-02-21T11:05:24;11.93;;;7.18;;
37943;SDS011;23767;42.024;23.086;2024-02-21T11:07:52;11.00;;;6.53;;
37943;SDS011;23767;42.024;23.086;2024-02-21T11:10:25;8.90;;;5.00;;
37943;SDS011;23767;42.024;23.086;2024-02-21T11:13:09;8.55;;;3.70;;
37943;SDS011;23767;42.024;23.086;2024-02-21T11:15:36;11.02;;;4.50;;
37943;SDS011;23767;42.024;23.086;2024-02-21T11:18:01;9.27;;;3.80;;
37943;SDS011;23767;42.024;23.086;2024-02-21T11:20:37;7.32;;;4.03;;
37943;SDS011;23767;42.024;23.086;2024-02-21T11:23:03;14.38;;;4.38;;
37943;SDS011;23767;42.024;23.086;2024-02-21T11:25:29;9.80;;;3.65;;
37943;SDS011;23767;42.024;23.086;2024-02-21T11:28:00;7.13;;;3.30;;
37943;SDS011;23767;42.024;23.086;2024-02-21T11:30:27;5.70;;;3.10;;
37943;SDS011;23767;42.024;23.086;2024-02-21T11:33:01;7.15;;;3.15;;
37943;SDS011;23767;42.024;23.086;2024-02-21T11:35:30;13.30;;;3.30;;
37943;SDS011;23767;42.024;23.086;2024-02-21T11:38:07;10.88;;;3.40;;
37943;SDS011;23767;42.024;23.086;2024-02-21T11:40:39;12.48;;;4.25;;
37943;SDS011;23767;42.024;23.086;2024-02-21T11:43:06;9.55;;;3.47;;
37943;SDS011;23767;42.024;23.086;2024-02-21T11:45:32;9.30;;;3.55;;
37943;SDS011;23767;42.024;23.086;2024-02-21T11:47:59;8.18;;;3.65;;
37943;SDS011;23767;42.024;23.086;2024-02-21T11:50:29;5.45;;;3.03;;
37943;SDS011;23767;42.024;23.086;2024-02-21T11:52:55;11.50;;;3.60;;
37943;SDS011;23767;42.024;23.086;2024-02-21T11:55:22;12.00;;;4.00;;
37943;SDS011;23767;42.024;23.086;2024-02-21T11:57:48;8.60;;;3.03;;
37943;SDS011;23767;42.024;23.086;2024-02-21T12:00:15;7.93;;;3.10;;
37943;SDS011;23767;42.024;23.086;2024-02-21T12:02:43;6.85;;;3.10;;
37943;SDS011;23767;42.024;23.086;2024-02-21T12:05:10;13.68;;;3.28;;
37943;SDS011;23767;42.024;23.086;2024-02-21T12:07:36;7.13;;;3.22;;
37943;SDS011;23767;42.024;23.086;2024-02-21T12:10:07;8.02;;;3.35;;
37943;SDS011;23767;42.024;23.086;2024-02-21T12:12:34;14.35;;;4.30;;
37943;SDS011;23767;42.024;23.086;2024-02-21T12:15:02;11.43;;;3.63;;
37943;SDS011;23767;42.024;23.086;2024-02-21T12:17:29;11.02;;;6.68;;
37943;SDS011;23767;42.024;23.086;2024-02-21T12:19:59;6.68;;;3.30;;
37943;SDS011;23767;42.024;23.086;2024-02-21T12:22:25;5.28;;;3.08;;
37943;SDS011;23767;42.024;23.086;2024-02-21T12:24:52;6.40;;;3.63;;
37943;SDS011;23767;42.024;23.086;2024-02-21T12:27:17;10.27;;;6.15;;
37943;SDS011;23767;42.024;23.086;2024-02-21T12:29:43;8.98;;;4.13;;
37943;SDS011;23767;42.024;23.086;2024-02-21T12:32:09;10.88;;;5.78;;
37943;SDS011;23767;42.024;23.086;2024-02-21T12:34:34;18.13;;;9.23;;
37943;SDS011;23767;42.024;23.086;2024-02-21T12:37:01;31.08;;;19.55;;
37943;SDS011;23767;42.024;23.086;2024-02-21T12:39:28;64.30;;;37.22;;
37943;SDS011;23767;42.024;23.086;2024-02-21T12:41:54;30.83;;;14.00;;
37943;SDS011;23767;42.024;23.086;2024-02-21T12:44:21;26.30;;;10.52;;
37943;SDS011;23767;42.024;23.086;2024-02-21T12:46:47;30.15;;;15.77;;
37943;SDS011;23767;42.024;23.086;2024-02-21T12:49:17;19.23;;;9.50;;
37943;SDS011;23767;42.024;23.086;2024-02-21T12:51:43;20.10;;;9.20;;
37943;SDS011;23767;42.024;23.086;2024-02-21T12:54:11;26.95;;;12.25;;
37943;SDS011;23767;42.024;23.086;2024-02-21T12:56:37;17.27;;;6.60;;
37943;SDS011;23767;42.024;23.086;2024-02-21T12:59:04;17.27;;;7.88;;
37943;SDS011;23767;42.024;23.086;2024-02-21T13:01:34;18.45;;;7.43;;
37943;SDS011;23767;42.024;23.086;2024-02-21T13:04:00;12.60;;;4.15;;
37943;SDS011;23767;42.024;23.086;2024-02-21T13:06:26;10.82;;;3.35;;
37943;SDS011;23767;42.024;23.086;2024-02-21T13:08:51;11.07;;;3.33;;
37943;SDS011;23767;42.024;23.086;2024-02-21T13:11:17;10.18;;;2.60;;
37943;SDS011;23767;42.024;23.086;2024-02-21T13:13:43;7.10;;;2.55;;
37943;SDS011;23767;42.024;23.086;2024-02-21T13:16:08;6.60;;;2.78;;
37943;SDS011;23767;42.024;23.086;2024-02-21T13:18:35;9.73;;;2.85;;
37943;SDS011;23767;42.024;23.086;2024-02-21T13:21:03;7.78;;;2.70;;
37943;SDS011;23767;42.024;23.086;2024-02-21T13:23:29;22.27;;;10.85;;
37943;SDS011;23767;42.024;23.086;2024-02-21T13:25:55;25.20;;;13.23;;
37943;SDS011;23767;42.024;23.086;2024-02-21T13:28:21;16.70;;;5.72;;
37943;SDS011;23767;42.024;23.086;2024-02-21T13:30:46;11.18;;;4.07;;
37943;SDS011;23767;42.024;23.086;2024-02-21T13:33:12;12.00;;;6.80;;
37943;SDS011;23767;42.024;23.086;2024-02-21T13:35:38;14.23;;;7.07;;
37943;SDS011;23767;42.024;23.086;2024-02-21T13:38:04;9.77;;;4.32;;
37943;SDS011;23767;42.024;23.086;2024-02-21T13:40:30;13.57;;;3.20;;
37943;SDS011;23767;42.024;23.086;2024-02-21T13:42:55;12.82;;;4.68;;
37943;SDS011;23767;42.024;23.086;2024-02-21T13:45:21;15.65;;;4.18;;
37943;SDS011;23767;42.024;23.086;2024-02-21T13:47:47;10.48;;;3.70;;
37943;SDS011;23767;42.024;23.086;2024-02-21T13:50:13;8.32;;;3.28;;
37943;SDS011;23767;42.024;23.086;2024-02-21T13:52:40;8.80;;;3.08;;
37943;SDS011;23767;42.024;23.086;2024-02-21T13:55:05;8.70;;;3.97;;
37943;SDS011;23767;42.024;23.086;2024-02-21T13:57:37;9.70;;;5.00;;
37943;SDS011;23767;42.024;23.086;2024-02-21T14:00:03;12.13;;;7.78;;
37943;SDS011;23767;42.024;23.086;2024-02-21T14:02:29;8.82;;;4.63;;
37943;SDS011;23767;42.024;23.086;2024-02-21T14:04:56;8.55;;;3.72;;
37943;SDS011;23767;42.024;23.086;2024-02-21T14:07:22;14.68;;;4.25;;
37943;SDS011;23767;42.024;23.086;2024-02-21T14:09:47;10.88;;;3.55;;
37943;SDS011;23767;42.024;23.086;2024-02-21T14:12:13;11.85;;;3.88;;
37943;SDS011;23767;42.024;23.086;2024-02-21T14:14:41;8.65;;;3.92;;
37943;SDS011;23767;42.024;23.086;2024-02-21T14:17:09;16.40;;;4.60;;
37943;SDS011;23767;42.024;23.086;2024-02-21T14:19:34;9.75;;;3.90;;
37943;SDS011;23767;42.024;23.086;2024-02-21T14:22:00;12.85;;;3.90;;